Time;durP1;ratioP1;P1;durP2;ratioP2;P2;SDS_P1;SDS_P2;PMS_P1;PMS_P2;Temp;Humidity;BMP_temperature;BMP_pressure;BME280_temperature;BME280_humidity;BME280_pressure;Samples;Min_cycle;Max_cycle;Signal;HPM_P1;HPM_P2
2024/01/02 00:01:12;;;;;;;71.32;38.08;;;;;;;9.39;91.97;99643.19;5078067;28;20049;-65
2024/01/02 00:03:38;;;;;;;50.53;30.08;;;;;;;9.42;91.08;99649.97;5078472;28;20241;-64
2024/01/02 00:06:04;;;;;;;45.35;27.50;;;;;;;9.38;91.23;99648.63;5077981;28;20261;-63
2024/01/02 00:08:29;;;;;;;48.42;31.15;;;;;;;8.93;93.56;99655.75;5078265;28;20044;-62
2024/01/02 00:10:54;;;;;;;51.25;31.25;;;;;;;8.90;94.09;99653.41;5078273;28;20051;-63
2024/01/02 00:13:20;;;;;;;49.78;30.95;;;;;;;9.05;93.58;99656.31;5078435;28;20024;-63
2024/01/02 00:15:46;;;;;;;47.33;30.55;;;;;;;9.18;92.85;99659.38;5078359;28;20241;-64
2024/01/02 00:18:11;;;;;;;48.33;29.15;;;;;;;9.24;92.11;99652.66;5078662;28;20032;-64
2024/01/02 00:20:37;;;;;;;41.25;24.30;;;;;;;9.27;91.87;99653.16;5077730;28;20111;-62
2024/01/02 00:23:02;;;;;;;42.15;23.85;;;;;;;9.22;90.94;99654.63;5077901;28;20040;-64
2024/01/02 00:25:28;;;;;;;41.72;25.63;;;;;;;9.11;91.67;99642.50;5077942;28;20044;-65
2024/01/02 00:27:53;;;;;;;43.28;25.23;;;;;;;9.18;89.32;99647.97;5077967;28;20035;-65
2024/01/02 00:30:19;;;;;;;42.20;23.35;;;;;;;8.95;87.17;99647.66;5078074;28;20040;-63
2024/01/02 00:32:44;;;;;;;44.08;26.45;;;;;;;8.55;89.19;99637.59;5078225;28;20258;-63
2024/01/02 00:35:10;;;;;;;41.03;25.27;;;;;;;8.47;91.90;99634.91;5077920;28;20044;-63
2024/01/02 00:37:35;;;;;;;41.60;25.25;;;;;;;8.61;91.97;99648.38;5079833;28;20273;-63
2024/01/02 00:40:01;;;;;;;39.40;24.80;;;;;;;8.60;91.67;99644.09;5081686;28;20055;-65
2024/01/02 00:42:27;;;;;;;39.28;24.75;;;;;;;8.62;89.16;99638.66;5081693;28;20066;-65
2024/01/02 00:44:52;;;;;;;37.92;25.02;;;;;;;8.67;90.81;99625.84;5081692;28;20040;-63
2024/01/02 00:47:21;;;;;;;45.35;25.75;;;;;;;8.66;90.11;99629.44;5081236;28;20056;-63
2024/01/02 00:49:48;;;;;;;48.20;27.15;;;;;;;8.59;90.27;99633.69;5081402;28;20028;-63
2024/01/02 00:52:13;;;;;;;46.50;26.83;;;;;;;8.61;89.92;99635.19;5081387;28;20086;-65
2024/01/02 00:54:39;;;;;;;45.70;27.13;;;;;;;8.54;89.69;99638.59;5081498;28;20330;-65
2024/01/02 00:57:04;;;;;;;49.75;28.08;;;;;;;8.50;89.92;99635.41;5080990;28;20040;-63
2024/01/02 00:59:30;;;;;;;47.58;27.33;;;;;;;8.54;89.93;99633.31;5081011;28;20032;-62
2024/01/02 01:01:55;;;;;;;47.03;28.30;;;;;;;8.44;90.64;99635.19;5080829;28;20410;-63
2024/01/02 01:04:21;;;;;;;48.38;26.98;;;;;;;8.42;91.60;99635.34;5081794;28;20032;-65
2024/01/02 01:06:46;;;;;;;50.70;29.13;;;;;;;8.41;91.96;99632.84;5080896;28;20044;-65
2024/01/02 01:09:12;;;;;;;43.20;24.90;;;;;;;8.46;91.11;99639.34;5081250;28;20106;-64
2024/01/02 01:11:37;;;;;;;39.33;25.30;;;;;;;8.52;90.41;99641.38;5081033;28;20265;-62
2024/01/02 01:14:03;;;;;;;39.08;23.33;;;;;;;8.43;91.01;99641.44;5080955;28;20028;-62
2024/01/02 01:16:28;;;;;;;47.00;24.60;;;;;;;8.49;90.92;99640.84;5081482;28;20048;-63
2024/01/02 01:18:54;;;;;;;39.42;24.85;;;;;;;8.53;90.79;99644.84;5081374;28;20040;-64
2024/01/02 01:21:20;;;;;;;38.53;23.20;;;;;;;8.35;90.49;99634.28;5080588;28;20059;-64
2024/01/02 01:23:45;;;;;;;43.78;23.05;;;;;;;8.47;89.52;99633.09;5081226;28;20084;-63
2024/01/02 01:26:11;;;;;;;38.92;23.77;;;;;;;8.50;87.88;99627.50;5080875;28;20329;-64
2024/01/02 01:28:36;;;;;;;37.80;22.83;;;;;;;8.48;87.21;99628.63;5081157;28;20221;-63
2024/01/02 01:31:02;;;;;;;35.50;22.55;;;;;;;8.45;86.02;99621.03;5080827;28;20055;-64
2024/01/02 01:33:27;;;;;;;37.47;22.30;;;;;;;8.24;87.22;99618.63;5081295;28;20032;-64
2024/01/02 01:35:53;;;;;;;37.08;22.52;;;;;;;8.18;86.98;99622.69;5080706;28;20067;-63
2024/01/02 01:38:18;;;;;;;34.83;22.60;;;;;;;7.98;90.07;99622.00;5081028;28;20036;-63
2024/01/02 01:40:44;;;;;;;47.53;30.88;;;;;;;8.11;91.90;99612.88;5080428;28;20044;-62
2024/01/02 01:43:12;;;;;;;45.95;29.95;;;;;;;8.13;92.84;99613.56;5080342;28;20032;-63
2024/01/02 01:45:38;;;;;;;42.33;27.27;;;;;;;8.01;93.90;99607.69;5080800;28;20036;-62
2024/01/02 01:48:06;;;;;;;40.22;24.08;;;;;;;7.98;95.47;99606.16;5080841;28;20873;-62
2024/01/02 01:50:32;;;;;;;36.05;22.63;;;;;;;8.07;93.97;99604.44;5079657;28;20032;-64
2024/01/02 01:53:00;;;;;;;36.05;21.67;;;;;;;8.06;94.25;99601.97;5080276;28;20123;-64
2024/01/02 01:55:26;;;;;;;36.40;20.15;;;;;;;8.12;94.13;99594.28;5080319;28;20033;-63
2024/01/02 01:57:53;;;;;;;36.13;20.48;;;;;;;8.23;93.08;99595.88;5079788;28;20060;-63
2024/01/02 02:00:20;;;;;;;36.40;21.20;;;;;;;8.24;92.80;99594.88;5078983;28;20062;-63
2024/01/02 02:02:46;;;;;;;38.45;22.52;;;;;;;8.17;93.46;99591.19;5079601;28;20333;-64
2024/01/02 02:05:12;;;;;;;35.67;21.67;;;;;;;8.08;94.04;99585.00;5079805;28;20097;-62
2024/01/02 02:07:40;;;;;;;34.13;21.00;;;;;;;8.08;94.36;99584.19;5079984;28;20055;-63
2024/01/02 02:10:09;;;;;;;36.55;20.88;;;;;;;8.14;94.17;99586.22;5079329;28;20349;-62
2024/01/02 02:12:36;;;;;;;36.15;20.60;;;;;;;8.22;93.87;99584.47;5079982;28;20036;-62
2024/01/02 02:15:03;;;;;;;36.72;21.85;;;;;;;8.24;93.68;99589.59;5079540;28;20072;-63
2024/01/02 02:17:29;;;;;;;41.85;22.77;;;;;;;8.30;93.31;99581.91;5079893;28;20036;-64
2024/01/02 02:19:58;;;;;;;35.03;20.77;;;;;;;8.31;92.54;99575.66;5079569;28;20044;-64
2024/01/02 02:22:34;;;;;;;34.05;20.15;;;;;;;8.39;91.53;99567.06;5080041;28;20032;-63
2024/01/02 02:25:04;;;;;;;35.35;21.48;;;;;;;8.37;90.90;99566.38;5079842;28;20052;-63
2024/01/02 02:27:30;;;;;;;37.58;23.33;;;;;;;8.43;91.45;99565.75;5080171;28;20155;-63
2024/01/02 02:29:56;;;;;;;31.77;20.33;;;;;;;8.43;90.51;99563.13;5079311;28;20309;-64
2024/01/02 02:32:22;;;;;;;31.00;21.02;;;;;;;8.22;90.14;99560.75;5079058;28;20031;-64
2024/01/02 02:34:48;;;;;;;33.05;21.77;;;;;;;7.95;89.82;99564.28;5079586;28;20344;-62
2024/01/02 02:37:13;;;;;;;36.13;20.63;;;;;;;7.91;92.12;99564.72;5078892;28;20036;-63
2024/01/02 02:39:39;;;;;;;41.22;22.73;;;;;;;8.00;91.53;99572.56;5079607;28;20037;-63
2024/01/02 02:42:05;;;;;;;34.40;21.73;;;;;;;8.11;91.49;99578.59;5079251;28;20337;-62
2024/01/02 02:44:31;;;;;;;35.83;21.80;;;;;;;8.06;91.52;99589.59;5077988;28;20095;-63
2024/01/02 02:46:57;;;;;;;35.80;22.52;;;;;;;7.99;92.51;99593.81;5079702;28;20036;-65
2024/01/02 02:49:23;;;;;;;42.05;26.20;;;;;;;8.02;93.64;99593.50;5078984;28;20044;-62
2024/01/02 02:51:49;;;;;;;41.13;23.65;;;;;;;8.08;93.40;99600.00;5079150;28;20048;-63
2024/01/02 02:54:14;;;;;;;39.35;21.80;;;;;;;8.06;93.45;99602.78;5079031;28;20103;-63
2024/01/02 02:56:42;;;;;;;37.47;22.80;;;;;;;8.11;93.50;99605.81;5078913;28;20049;-62
2024/01/02 02:59:09;;;;;;;41.28;25.48;;;;;;;8.16;93.17;99610.63;5079061;28;20040;-65
2024/01/02 03:01:35;;;;;;;41.75;25.02;;;;;;;8.21;92.61;99593.38;5078240;28;20192;-64
2024/01/02 03:04:00;;;;;;;43.35;24.63;;;;;;;8.23;91.95;99595.88;5078900;28;20078;-63
2024/01/02 03:06:26;;;;;;;39.45;24.20;;;;;;;8.12;92.79;99588.16;5078859;28;20040;-63
2024/01/02 03:08:51;;;;;;;41.33;23.80;;;;;;;8.23;91.84;99591.41;5078673;28;20329;-62
2024/01/02 03:11:18;;;;;;;38.53;23.10;;;;;;;8.24;91.82;99579.06;5076963;28;20028;-63
2024/01/02 03:13:43;;;;;;;41.70;23.77;;;;;;;8.28;90.98;99583.88;5078790;28;20032;-64
2024/01/02 03:16:09;;;;;;;35.33;22.40;;;;;;;8.17;91.45;99575.38;5078777;28;20097;-65
2024/01/02 03:18:35;;;;;;;37.53;22.38;;;;;;;8.10;91.55;99574.31;5079217;28;20043;-63
2024/01/02 03:21:01;;;;;;;33.90;21.83;;;;;;;8.12;92.49;99583.72;5078344;28;20050;-63
2024/01/02 03:23:26;;;;;;;39.30;24.25;;;;;;;8.17;92.05;99581.47;5078747;28;20052;-65
2024/01/02 03:25:52;;;;;;;41.58;23.92;;;;;;;8.22;92.39;99588.94;5078352;28;20321;-65
2024/01/02 03:28:17;;;;;;;35.15;22.38;;;;;;;8.30;92.05;99592.47;5078519;28;20055;-63
2024/01/02 03:30:43;;;;;;;38.22;23.02;;;;;;;8.39;91.23;99601.34;5078619;28;20071;-63
2024/01/02 03:33:08;;;;;;;32.10;20.58;;;;;;;8.45;90.06;99592.00;5078627;28;20028;-63
2024/01/02 03:35:34;;;;;;;36.20;21.33;;;;;;;8.49;88.77;99594.19;5079027;28;20259;-63
2024/01/02 03:37:59;;;;;;;35.13;20.33;;;;;;;8.52;87.94;99593.03;5078393;28;20033;-64
2024/01/02 03:40:25;;;;;;;34.47;21.40;;;;;;;8.56;88.52;99583.84;5078803;28;20040;-65
2024/01/02 03:42:51;;;;;;;33.17;20.35;;;;;;;8.60;88.98;99590.47;5078236;28;20063;-64
2024/01/02 03:45:16;;;;;;;35.38;21.63;;;;;;;8.44;89.38;99583.25;5077869;28;20360;-63
2024/01/02 03:47:42;;;;;;;38.00;22.10;;;;;;;8.23;90.78;99580.88;5078603;28;20039;-63
2024/01/02 03:50:08;;;;;;;37.95;22.90;;;;;;;8.28;90.90;99589.16;5076847;28;20035;-63
2024/01/02 03:52:34;;;;;;;33.33;20.20;;;;;;;8.29;91.03;99584.72;5078443;28;20100;-64
2024/01/02 03:54:59;;;;;;;33.03;21.40;;;;;;;8.25;90.76;99573.63;5078085;28;20040;-64
2024/01/02 03:57:26;;;;;;;37.05;22.13;;;;;;;8.38;90.39;99583.88;5078214;28;20025;-62
2024/01/02 03:59:52;;;;;;;37.13;21.40;;;;;;;8.34;90.04;99579.03;5078043;28;20060;-63
2024/01/02 04:02:18;;;;;;;32.58;20.23;;;;;;;8.28;90.41;99575.13;5078055;28;20068;-63
2024/01/02 04:04:45;;;;;;;31.38;19.25;;;;;;;8.25;91.01;99565.72;5078264;28;20041;-64
2024/01/02 04:07:10;;;;;;;32.53;18.80;;;;;;;8.37;90.86;99562.91;5078088;28;20028;-65
2024/01/02 04:09:36;;;;;;;29.15;18.77;;;;;;;8.37;91.12;99557.63;5078385;28;20320;-63
2024/01/02 04:12:01;;;;;;;31.95;21.38;;;;;;;8.32;91.22;99561.53;5079036;28;20234;-63
2024/01/02 04:14:27;;;;;;;33.63;20.20;;;;;;;8.41;91.37;99549.25;5082673;28;20032;-64
2024/01/02 04:16:52;;;;;;;51.42;28.15;;;;;;;8.43;91.07;99563.13;5081747;28;20381;-65
2024/01/02 04:19:18;;;;;;;49.72;27.38;;;;;;;8.39;91.63;99571.50;5081765;28;20207;-65
2024/01/02 04:21:44;;;;;;;39.28;23.92;;;;;;;8.41;90.92;99578.28;5082058;28;20048;-63
2024/01/02 04:24:09;;;;;;;38.92;24.25;;;;;;;8.45;91.30;99584.09;5082180;28;20253;-64
2024/01/02 04:26:35;;;;;;;37.22;24.63;;;;;;;8.45;91.34;99594.63;5082306;28;20092;-64
2024/01/02 04:29:01;;;;;;;35.20;21.20;;;;;;;8.44;91.83;99592.97;5082193;28;20060;-65
2024/01/02 04:31:27;;;;;;;35.00;21.55;;;;;;;8.43;91.85;99599.25;5081996;28;20340;-63
2024/01/02 04:33:52;;;;;;;38.88;22.75;;;;;;;8.41;92.01;99586.19;5082199;28;20032;-64
2024/01/02 04:36:18;;;;;;;48.72;25.50;;;;;;;8.46;91.51;99588.38;5081957;28;20246;-62
2024/01/02 04:38:43;;;;;;;37.03;21.90;;;;;;;8.34;92.04;99592.22;5081894;28;20040;-63
2024/01/02 04:41:09;;;;;;;36.88;23.00;;;;;;;8.43;91.85;99592.16;5081376;28;20071;-63
2024/01/02 04:43:34;;;;;;;34.80;21.70;;;;;;;8.37;91.72;99586.66;5081966;28;20051;-64
2024/01/02 04:46:00;;;;;;;42.13;23.52;;;;;;;8.38;92.57;99583.03;5081412;28;20048;-65
2024/01/02 04:48:26;;;;;;;50.33;28.90;;;;;;;8.41;92.60;99585.38;5081896;28;20044;-63
2024/01/02 04:50:51;;;;;;;39.20;24.48;;;;;;;8.21;92.75;99579.34;5081072;28;20033;-63
2024/01/02 04:53:17;;;;;;;38.35;23.83;;;;;;;8.33;92.18;99586.13;5081917;28;20271;-64
2024/01/02 04:55:42;;;;;;;36.13;21.25;;;;;;;8.35;91.66;99591.25;5081674;28;20341;-64
2024/01/02 04:58:08;;;;;;;42.15;23.88;;;;;;;8.36;92.28;99582.34;5081365;28;20037;-62
2024/01/02 05:00:34;;;;;;;42.72;26.27;;;;;;;8.14;93.25;99584.41;5081274;28;20120;-63
2024/01/02 05:03:00;;;;;;;42.15;25.77;;;;;;;8.04;93.49;99590.72;5081338;28;20309;-63
2024/01/02 05:05:26;;;;;;;37.33;23.08;;;;;;;7.89;93.92;99591.25;5081090;28;20033;-64
2024/01/02 05:07:51;;;;;;;40.17;24.63;;;;;;;7.78;94.73;99598.53;5081527;28;20043;-64
2024/01/02 05:10:17;;;;;;;45.22;25.85;;;;;;;7.93;94.35;99602.31;5080912;28;20210;-63
2024/01/02 05:12:42;;;;;;;46.55;30.20;;;;;;;8.03;94.51;99600.44;5081373;28;20037;-64
2024/01/02 05:15:08;;;;;;;53.35;33.05;;;;;;;8.13;94.00;99597.75;5080921;28;20345;-63
2024/01/02 05:17:33;;;;;;;55.15;32.17;;;;;;;8.22;93.58;99600.31;5081453;28;20225;-63
2024/01/02 05:19:59;;;;;;;42.83;26.40;;;;;;;8.23;92.69;99595.88;5080664;28;20256;-62
2024/01/02 05:22:24;;;;;;;39.20;24.70;;;;;;;8.18;92.74;99598.94;5080225;28;20256;-65
2024/01/02 05:24:50;;;;;;;42.58;26.25;;;;;;;7.85;94.00;99594.31;5080988;28;20344;-64
2024/01/02 05:27:15;;;;;;;39.15;24.38;;;;;;;7.84;95.09;99590.03;5080714;28;20040;-63
2024/01/02 05:29:42;;;;;;;38.50;23.50;;;;;;;7.74;95.24;99594.53;5081236;28;20024;-63
2024/01/02 05:32:07;;;;;;;39.85;22.85;;;;;;;7.52;96.37;99579.94;5080938;28;20036;-62
2024/01/02 05:34:33;;;;;;;42.10;22.67;;;;;;;7.39;97.86;99587.34;5080940;28;20070;-64
2024/01/02 05:36:58;;;;;;;40.67;23.98;;;;;;;7.40;98.43;99591.66;5080888;28;20059;-64
2024/01/02 05:39:24;;;;;;;42.45;23.92;;;;;;;7.59;98.16;99600.28;5081183;28;20306;-62
2024/01/02 05:41:49;;;;;;;40.10;23.50;;;;;;;7.70;96.77;99604.53;5080593;28;20056;-63
2024/01/02 05:44:14;;;;;;;39.63;22.80;;;;;;;7.84;96.93;99611.13;5080578;28;20465;-64
2024/01/02 05:46:40;;;;;;;37.70;22.40;;;;;;;7.96;95.97;99618.66;5080795;28;20040;-64
2024/01/02 05:49:05;;;;;;;39.38;23.35;;;;;;;8.07;94.75;99625.53;5080198;28;20036;-63
2024/01/02 05:51:31;;;;;;;35.90;22.35;;;;;;;8.12;94.51;99622.47;5079843;28;20028;-63
2024/01/02 05:53:56;;;;;;;39.75;22.55;;;;;;;8.22;93.51;99631.97;5080290;28;20043;-63
2024/01/02 05:56:22;;;;;;;40.85;24.73;;;;;;;8.17;94.23;99630.75;5080365;28;20037;-62
2024/01/02 05:58:47;;;;;;;39.22;24.00;;;;;;;8.29;93.33;99626.91;5080410;28;20226;-62
2024/01/02 06:01:13;;;;;;;63.38;30.30;;;;;;;8.35;92.92;99621.09;5079611;28;20049;-65
2024/01/02 06:03:38;;;;;;;56.28;25.27;;;;;;;8.39;92.45;99627.72;5080195;28;20036;-62
2024/01/02 06:06:05;;;;;;;39.80;22.92;;;;;;;8.39;92.10;99646.19;5079898;28;20037;-64
2024/01/02 06:08:31;;;;;;;47.05;27.05;;;;;;;8.36;92.62;99645.69;5079824;28;20365;-63
2024/01/02 06:10:56;;;;;;;47.33;29.20;;;;;;;8.45;91.73;99642.13;5080274;28;20063;-63
2024/01/02 06:13:22;;;;;;;48.80;30.55;;;;;;;8.48;91.60;99645.31;5079986;28;20032;-64
2024/01/02 06:15:47;;;;;;;49.28;29.95;;;;;;;8.53;90.92;99645.69;5079738;28;20055;-63
2024/01/02 06:18:13;;;;;;;62.45;34.50;;;;;;;8.60;90.69;99641.44;5079703;28;20264;-62
2024/01/02 06:20:38;;;;;;;44.22;28.77;;;;;;;8.60;90.17;99651.19;5078856;28;20280;-63
2024/01/02 06:23:04;;;;;;;46.58;28.80;;;;;;;8.62;90.55;99649.22;5079925;28;20036;-63
2024/01/02 06:25:30;;;;;;;45.65;26.80;;;;;;;8.60;90.99;99656.44;5079656;28;20056;-64
2024/01/02 06:27:55;;;;;;;44.65;24.58;;;;;;;8.68;90.63;99659.16;5079727;28;20038;-64
2024/01/02 06:30:22;;;;;;;41.55;25.38;;;;;;;8.66;90.13;99668.22;5079304;28;20062;-62
2024/01/02 06:32:48;;;;;;;43.90;27.58;;;;;;;8.62;90.15;99676.44;5079244;28;20043;-62
2024/01/02 06:35:14;;;;;;;35.28;23.45;;;;;;;8.61;90.49;99677.41;5078705;28;20103;-63
2024/01/02 06:37:40;;;;;;;40.28;24.25;;;;;;;8.58;90.81;99672.44;5079628;28;20071;-63
2024/01/02 06:40:08;;;;;;;31.92;21.27;;;;;;;8.25;92.18;99673.88;5079676;28;20020;-64
2024/01/02 06:42:34;;;;;;;39.80;23.65;;;;;;;7.78;95.55;99656.50;5080043;28;20055;-64
2024/01/02 06:45:00;;;;;;;41.58;23.80;;;;;;;7.73;95.95;99653.50;5079668;28;20341;-65
2024/01/02 06:47:25;;;;;;;36.38;23.30;;;;;;;7.87;95.90;99661.75;5079241;28;20159;-63
2024/01/02 06:49:51;;;;;;;43.55;23.50;;;;;;;8.01;95.49;99670.97;5079024;28;20028;-62
2024/01/02 06:52:16;;;;;;;48.28;26.27;;;;;;;8.12;95.04;99670.75;5079359;28;20264;-62
2024/01/02 06:54:43;;;;;;;40.22;22.52;;;;;;;8.19;94.11;99666.56;5079486;28;20040;-64
2024/01/02 06:57:09;;;;;;;47.55;28.23;;;;;;;8.27;93.63;99663.16;5079135;28;20436;-64
2024/01/02 06:59:34;;;;;;;40.47;24.20;;;;;;;8.36;93.25;99661.50;5079260;28;20048;-62
2024/01/02 07:02:00;;;;;;;41.33;23.95;;;;;;;8.38;93.76;99670.09;5078052;28;20062;-62
2024/01/02 07:04:25;;;;;;;35.80;21.20;;;;;;;8.36;93.37;99667.59;5078856;28;20036;-63
2024/01/02 07:06:52;;;;;;;36.30;22.23;;;;;;;8.29;94.31;99663.84;5079180;28;20047;-65
2024/01/02 07:09:19;;;;;;;34.60;21.05;;;;;;;7.86;97.04;99654.81;5078985;28;20065;-65
2024/01/02 07:11:44;;;;;;;39.55;21.33;;;;;;;7.49;100.00;99641.66;5078952;28;20064;-62
2024/01/02 07:14:10;;;;;;;41.08;23.40;;;;;;;7.10;100.00;99642.72;5078812;28;20070;-62
2024/01/02 07:16:36;;;;;;;48.97;27.77;;;;;;;6.62;100.00;99619.94;5079179;28;20114;-62
2024/01/02 07:19:01;;;;;;;54.20;31.92;;;;;;;6.63;100.00;99613.72;5078500;28;20045;-64
2024/01/02 07:21:27;;;;;;;54.72;28.88;;;;;;;6.58;100.00;99624.66;5078580;28;20044;-63
2024/01/02 07:23:52;;;;;;;52.30;31.92;;;;;;;6.89;100.00;99650.81;5078684;28;20044;-65
2024/01/02 07:26:18;;;;;;;51.92;29.13;;;;;;;7.22;100.00;99654.75;5078662;28;20063;-65
2024/01/02 07:28:44;;;;;;;37.38;23.02;;;;;;;7.52;100.00;99653.72;5078609;28;20029;-62
2024/01/02 07:31:11;;;;;;;37.72;21.50;;;;;;;7.73;100.00;99650.84;5079153;28;20459;-62
2024/01/02 07:33:37;;;;;;;32.20;19.63;;;;;;;7.97;100.00;99654.59;5078648;28;20036;-63
2024/01/02 07:36:03;;;;;;;33.80;19.70;;;;;;;8.14;100.00;99654.78;5078663;28;20302;-64
2024/01/02 07:38:30;;;;;;;34.17;20.27;;;;;;;8.16;100.00;99660.75;5078546;28;20044;-64
2024/01/02 07:40:55;;;;;;;39.65;20.83;;;;;;;8.11;100.00;99668.25;5078727;28;20036;-62
2024/01/02 07:43:23;;;;;;;30.77;20.25;;;;;;;8.17;100.00;99671.13;5078810;28;20341;-62
2024/01/02 07:45:48;;;;;;;38.28;22.95;;;;;;;8.18;100.00;99669.34;5078331;28;20334;-63
2024/01/02 07:48:14;;;;;;;36.53;20.17;;;;;;;8.12;100.00;99656.75;5078496;28;20064;-65
2024/01/02 07:50:39;;;;;;;34.53;21.85;;;;;;;7.97;100.00;99662.53;5078163;28;20044;-63
2024/01/02 07:53:05;;;;;;;35.40;21.75;;;;;;;7.53;100.00;99650.94;5078420;28;20040;-63
2024/01/02 07:55:31;;;;;;;33.95;20.20;;;;;;;7.55;100.00;99650.78;5078249;28;20067;-63
2024/01/02 07:57:57;;;;;;;35.78;20.20;;;;;;;7.34;100.00;99656.28;5078370;28;20112;-62
2024/01/02 08:00:23;;;;;;;36.78;22.13;;;;;;;7.12;100.00;99656.59;5078310;28;20113;-62
2024/01/02 08:02:49;;;;;;;34.72;22.02;;;;;;;7.28;100.00;99659.44;5078372;28;20037;-65
2024/01/02 08:05:15;;;;;;;41.55;24.17;;;;;;;7.64;100.00;99674.47;5078482;28;20410;-64
2024/01/02 08:07:40;;;;;;;39.83;25.00;;;;;;;7.98;100.00;99679.16;5078463;28;20276;-63
2024/01/02 08:10:07;;;;;;;43.13;24.60;;;;;;;8.26;100.00;99686.06;5078182;28;20037;-62
2024/01/02 08:12:33;;;;;;;45.75;25.15;;;;;;;8.53;100.00;99690.53;5078255;28;20052;-65
2024/01/02 08:14:58;;;;;;;49.20;28.17;;;;;;;8.70;100.00;99702.06;5078470;28;20040;-65
2024/01/02 08:17:24;;;;;;;44.65;27.25;;;;;;;8.70;100.00;99703.88;5078279;28;20370;-63
2024/01/02 08:19:53;;;;;;;56.97;31.75;;;;;;;8.85;100.00;99716.41;5077840;28;20047;-63
2024/01/02 08:22:19;;;;;;;44.80;28.42;;;;;;;8.88;100.00;99716.09;5077917;28;20044;-63
2024/01/02 08:24:45;;;;;;;51.17;28.77;;;;;;;8.99;100.00;99717.69;5078058;28;20032;-62
2024/01/02 08:27:11;;;;;;;52.15;30.17;;;;;;;9.06;100.00;99728.47;5077784;28;20039;-63
2024/01/02 08:29:36;;;;;;;48.08;27.98;;;;;;;9.07;100.00;99730.94;5078383;28;20362;-64
2024/01/02 08:32:02;;;;;;;49.00;28.95;;;;;;;9.01;100.00;99723.63;5077778;28;20135;-63
2024/01/02 08:34:28;;;;;;;38.42;23.05;;;;;;;9.14;100.00;99725.88;5078206;28;20029;-64
2024/01/02 08:36:54;;;;;;;37.67;22.20;;;;;;;9.25;100.00;99721.19;5078056;28;20051;-63
2024/01/02 08:39:19;;;;;;;37.17;23.40;;;;;;;9.31;99.42;99724.19;5078098;28;20025;-63
2024/01/02 08:41:45;;;;;;;38.35;23.65;;;;;;;9.37;99.48;99724.44;5078159;28;20093;-64
2024/01/02 08:44:10;;;;;;;41.35;23.45;;;;;;;9.54;98.78;99720.91;5078166;28;20036;-64
2024/01/02 08:46:36;;;;;;;36.88;22.58;;;;;;;9.62;98.47;99721.94;5077944;28;20040;-63
2024/01/02 08:49:02;;;;;;;39.78;22.98;;;;;;;9.71;98.09;99724.47;5077840;28;20222;-62
2024/01/02 08:51:28;;;;;;;34.63;20.70;;;;;;;9.74;97.62;99725.97;5077746;28;20042;-62
2024/01/02 08:53:53;;;;;;;36.22;22.33;;;;;;;9.83;97.37;99738.25;5078064;28;20036;-65
2024/01/02 08:56:21;;;;;;;32.67;21.42;;;;;;;9.90;96.83;99739.28;5078066;28;20044;-65
2024/01/02 08:58:46;;;;;;;35.50;22.88;;;;;;;9.91;97.46;99735.66;5080061;28;20032;-64
2024/01/02 09:01:12;;;;;;;37.63;22.48;;;;;;;9.90;97.81;99732.19;5081032;28;20295;-62
2024/01/02 09:03:38;;;;;;;34.85;21.77;;;;;;;9.88;97.94;99742.09;5081514;28;20029;-62
2024/01/02 09:06:04;;;;;;;34.08;22.15;;;;;;;9.88;98.44;99739.44;5081414;28;20045;-62
2024/01/02 09:08:30;;;;;;;41.53;25.83;;;;;;;9.92;98.64;99734.66;5081047;28;20036;-63
2024/01/02 09:10:58;;;;;;;50.53;30.42;;;;;;;9.96;98.50;99741.28;5081435;28;20205;-63
2024/01/02 09:13:24;;;;;;;48.97;29.88;;;;;;;9.99;98.82;99735.69;5081359;28;20038;-65
2024/01/02 09:15:49;;;;;;;50.03;29.23;;;;;;;9.97;98.95;99734.19;5081002;28;20246;-64
2024/01/02 09:18:15;;;;;;;46.88;28.45;;;;;;;10.00;99.32;99732.06;5080653;28;20250;-63
2024/01/02 09:20:40;;;;;;;46.10;27.52;;;;;;;10.05;99.75;99732.41;5080785;28;20055;-63
2024/01/02 09:23:06;;;;;;;48.60;27.98;;;;;;;10.13;99.18;99728.97;5081066;28;20055;-63
2024/01/02 09:25:35;;;;;;;48.08;27.58;;;;;;;10.16;99.58;99723.38;5081033;28;20190;-65
2024/01/02 09:28:04;;;;;;;42.85;26.35;;;;;;;10.16;99.04;99723.38;5080965;28;20048;-65
2024/01/02 09:30:32;;;;;;;45.47;28.10;;;;;;;10.19;99.37;99718.56;5080860;28;20033;-62
2024/01/02 09:32:58;;;;;;;51.05;28.98;;;;;;;10.19;99.41;99715.09;5081286;28;20625;-63
2024/01/02 09:35:24;;;;;;;51.72;31.38;;;;;;;10.23;100.00;99719.94;5080793;28;20044;-63
2024/01/02 09:37:50;;;;;;;49.80;32.63;;;;;;;10.27;100.00;99719.63;5080723;28;20111;-64
2024/01/02 09:40:41;;;;;;;56.17;35.08;;;;;;;10.39;100.00;99718.34;5080559;28;20041;-64
2024/01/02 09:43:33;;;;;;;56.63;34.15;;;;;;;10.42;100.00;99716.22;5080805;28;20109;-64
2024/01/02 09:46:11;;;;;;;61.00;36.78;;;;;;;10.47;100.00;99716.56;5080598;28;20051;-64
2024/01/02 09:48:57;;;;;;;58.50;35.72;;;;;;;10.46;100.00;99727.31;5080301;28;20041;-64
2024/01/02 09:51:29;;;;;;;61.75;35.15;;;;;;;10.28;100.00;99724.75;5080314;28;20115;-64
2024/01/02 09:53:54;;;;;;;63.15;34.80;;;;;;;10.39;100.00;99728.94;5081269;28;20040;-65
2024/01/02 09:56:36;;;;;;;45.50;28.10;;;;;;;10.41;100.00;99722.50;5080431;28;20055;-65
2024/01/02 09:59:20;;;;;;;45.60;27.02;;;;;;;10.41;100.00;99724.31;5080026;28;20063;-63
2024/01/02 10:02:16;;;;;;;48.30;26.13;;;;;;;10.43;100.00;99720.53;5079994;28;20064;-63
2024/01/02 10:05:08;;;;;;;43.83;25.60;;;;;;;10.47;100.00;99723.69;5080535;28;20066;-64
2024/01/02 10:07:55;;;;;;;35.50;22.15;;;;;;;10.49;100.00;99725.19;5080150;28;20032;-65
2024/01/02 10:10:41;;;;;;;38.10;22.35;;;;;;;10.44;100.00;99722.19;5079854;28;20119;-63
2024/01/02 10:13:09;;;;;;;39.08;23.15;;;;;;;10.49;100.00;99711.13;5079885;28;20036;-63
2024/01/02 10:15:46;;;;;;;36.38;21.77;;;;;;;10.50;100.00;99705.66;5079986;28;20036;-65
2024/01/02 10:18:33;;;;;;;34.03;20.65;;;;;;;10.60;100.00;99702.88;5079806;28;20095;-64
2024/01/02 10:21:37;;;;;;;35.55;20.88;;;;;;;10.53;100.00;99705.34;5079704;28;20048;-63
2024/01/02 10:24:21;;;;;;;43.33;24.42;;;;;;;10.50;100.00;99705.66;5077724;28;20112;-62
2024/01/02 10:27:03;;;;;;;48.72;26.65;;;;;;;10.44;100.00;99698.38;5079549;28;20068;-62
2024/01/02 10:29:42;;;;;;;44.03;24.33;;;;;;;10.58;100.00;99693.41;5080034;28;20040;-65
2024/01/02 10:32:21;;;;;;;49.53;24.90;;;;;;;10.49;100.00;99687.28;5079705;28;20050;-65
2024/01/02 10:35:08;;;;;;;37.33;22.38;;;;;;;10.47;100.00;99687.44;5079705;28;20086;-63
2024/01/02 10:37:45;;;;;;;37.60;22.52;;;;;;;10.61;100.00;99672.75;5079990;28;20032;-63
2024/01/02 10:40:23;;;;;;;40.30;22.90;;;;;;;10.74;100.00;99677.56;5078986;28;20051;-63
2024/01/02 10:43:07;;;;;;;38.45;22.25;;;;;;;10.81;100.00;99692.63;5079454;28;20230;-64
2024/01/02 10:45:59;;;;;;;40.45;26.17;;;;;;;10.59;100.00;99690.63;5079357;28;20074;-64
2024/01/02 10:48:54;;;;;;;58.22;37.80;;;;;;;10.73;100.00;99684.66;5073771;28;20290;-62
2024/01/02 10:51:41;;;;;;;50.42;34.25;;;;;;;10.84;100.00;99686.16;5079443;28;20032;-64
2024/01/02 10:54:19;;;;;;;52.45;32.75;;;;;;;11.01;100.00;99679.03;5079607;28;20047;-64
2024/01/02 10:57:00;;;;;;;45.70;26.73;;;;;;;11.11;100.00;99675.22;5079518;28;20056;-62
2024/01/02 10:59:29;;;;;;;44.25;26.15;;;;;;;11.09;100.00;99679.88;5079148;28;20058;-64
2024/01/02 11:02:44;;;;;;;36.45;24.38;;;;;;;11.16;100.00;99690.63;5078783;28;20056;-63
2024/01/02 11:05:10;;;;;;;38.75;23.27;;;;;;;11.25;100.00;99688.78;5065832;28;20052;-63
2024/01/02 11:07:40;;;;;;;37.95;24.02;;;;;;;11.32;100.00;99676.53;5079327;28;20435;-63
2024/01/02 11:10:13;;;;;;;37.88;23.10;;;;;;;11.28;100.00;99677.84;5079008;28;20044;-65
2024/01/02 11:13:06;;;;;;;35.72;22.30;;;;;;;11.26;100.00;99683.31;5078878;28;20325;-64
2024/01/02 11:15:35;;;;;;;39.85;21.27;;;;;;;11.10;100.00;99681.53;5079129;28;20036;-62
2024/01/02 11:18:03;;;;;;;35.40;20.15;;;;;;;11.02;100.00;99678.88;5078776;28;20051;-63
2024/01/02 11:21:02;;;;;;;31.40;21.20;;;;;;;11.01;100.00;99671.09;5078362;28;20067;-62
2024/01/02 11:23:33;;;;;;;34.70;20.88;;;;;;;11.05;100.00;99660.00;5078929;28;20310;-63
2024/01/02 11:26:19;;;;;;;32.90;20.30;;;;;;;11.12;100.00;99658.34;5078143;28;20059;-64